Thassos I — SVA2081 — position and weather

sailwx.info

Track history (hours):
 
Tides and Currents Weather Stations Pressure Air Temp Water Temp Dewpoint Dewpoint Depression Visibility Wind Speed Wind Dir Waves Ship Positions

Thassos I

Last reported at 2018-Jun-22 07:30 UTC. Time now 2018-Jun-22 07:46 UTC.
Position N 40°47' E 024°42'.

Length 98 m; draft 2.4 m.

Type: Passenger vessel. MMSI: 239361400.

Date/timePositionNaut miles runAvg speedWind from/ knotsBaromVisibWave heightAir tempDewpointWater temp
2018-Jun-22 07:30N 40°47' E 024°42'0 0.5
2018-Jun-22 07:00N 40°47' E 024°43'0 0.0
2018-Jun-21 12:34N 40°47' E 024°43'0 0.1
2018-Jun-21 12:31N 40°47' E 024°43'1 1.4
2018-Jun-21 12:00N 40°47' E 024°42'4 8.5
2018-Jun-21 11:30N 40°51' E 024°42'0 0.0
2018-Jun-21 11:00N 40°51' E 024°42'2 4.5
2018-Jun-21 10:30N 40°49' E 024°42'2 5.0
2018-Jun-21 10:00N 40°47' E 024°42'0 0.5
2018-Jun-21 09:30N 40°47' E 024°43'0 0.0
2018-Jun-21 09:01N 40°47' E 024°43'0 0.0
2018-Jun-21 08:31N 40°47' E 024°43'1 1.5
2018-Jun-21 08:01N 40°47' E 024°42'4 8.1
2018-Jun-21 07:31N 40°51' E 024°42'0 0.0
2018-Jun-21 07:01N 40°51' E 024°42'2 4.3
2018-Jun-21 06:30N 40°49' E 024°42'3 5.2
2018-Jun-21 06:01N 40°47' E 024°42'0 0.0
2018-Jun-21 05:31N 40°47' E 024°42'0 0.0
2018-Jun-21 05:01N 40°47' E 024°42'1 1.5
2018-Jun-21 04:31N 40°48' E 024°42'4 7.9
2018-Jun-21 04:01N 40°51' E 024°42'0 0.0
2018-Jun-21 03:30N 40°51' E 024°42'0 0.9
2018-Jun-21 03:01N 40°52' E 024°42'5 9.7
2018-Jun-21 02:31N 40°47' E 024°42'0 0.0
2018-Jun-21 02:01N 40°47' E 024°42'0 0.0
2018-Jun-20 10:09N 40°47' E 024°42'1 5.2
2018-Jun-20 10:01N 40°47' E 024°42'4 8.0
2018-Jun-20 09:31N 40°51' E 024°42'0 0.0
2018-Jun-20 09:00N 40°51' E 024°42'2 4.5
2018-Jun-20 08:30N 40°49' E 024°41'3 5.1
2018-Jun-20 08:00N 40°47' E 024°42'0 0.0
2018-Jun-20 07:31N 40°47' E 024°42'0 0.7
2018-Jun-20 07:00N 40°47' E 024°42'4 8.7
2018-Jun-20 06:31N 40°51' E 024°42'0 0.1
2018-Jun-20 06:01N 40°51' E 024°42'2 4.7
2018-Jun-20 05:31N 40°49' E 024°42'2 4.7
2018-Jun-20 05:01N 40°47' E 024°42'0 0.0
2018-Jun-20 04:31N 40°47' E 024°42'1 2.0
2018-Jun-20 04:01N 40°48' E 024°42'4 7.5
2018-Jun-20 03:31N 40°51' E 024°42'0 0.0
2018-Jun-20 03:00N 40°51' E 024°42'0 0.0
2018-Jun-19 20:46N 40°51' E 024°42'0 1.4
2018-Jun-19 20:30N 40°52' E 024°42'5 9.6
2018-Jun-19 20:00N 40°47' E 024°42'0 0.0
2018-Jun-19 19:30N 40°47' E 024°42'0 0.0
2018-Jun-19 19:00N 40°47' E 024°42'1 1.1
2018-Jun-19 18:30N 40°47' E 024°42'4 8.4
2018-Jun-19 18:00N 40°51' E 024°42'0 0.7
2018-Jun-19 17:30N 40°52' E 024°42'5 9.5
2018-Jun-19 17:00N 40°47' E 024°42'0 0.8
2018-Jun-19 16:30N 40°47' E 024°42'4 8.6
2018-Jun-19 16:00N 40°51' E 024°42'0 0.3
2018-Jun-19 15:30N 40°51' E 024°42'0 0.0
2018-Jun-18 09:13N 40°51' E 024°42'0 0.2
2018-Jun-18 09:00N 40°51' E 024°42'4 8.8
2018-Jun-18 08:30N 40°47' E 024°42'1 1.3
2018-Jun-18 08:00N 40°48' E 024°42'4 7.5
2018-Jun-18 07:30N 40°51' E 024°42'0 0.0
2018-Jun-18 07:00N 40°51' E 024°42'2 4.1
2018-Jun-18 06:30N 40°49' E 024°41'3 5.3
2018-Jun-18 06:00N 40°47' E 024°42'0 0.9
2018-Jun-18 05:30N 40°47' E 024°42'4 8.2
2018-Jun-18 05:00N 40°51' E 024°42'0 0.0
2018-Jun-18 04:30N 40°51' E 024°42'2 4.4
2018-Jun-18 04:00N 40°49' E 024°42'3 5.0
2018-Jun-18 03:30N 40°47' E 024°42'0 0.0
2018-Jun-18 03:00N 40°47' E 024°42'4 7.3
2018-Jun-18 02:30N 40°50' E 024°41'1 2.8
2018-Jun-18 02:00N 40°51' E 024°42'0 0.0
2018-Jun-17 19:10N 40°51' E 024°42'1 3.4
2018-Jun-17 19:00N 40°52' E 024°41'5 9.6
2018-Jun-17 18:30N 40°47' E 024°42'0 0.0
2018-Jun-17 18:00N 40°47' E 024°42'1 1.9
2018-Jun-17 17:30N 40°48' E 024°42'4 7.5
2018-Jun-17 17:00N 40°51' E 024°42'0 0.0
2018-Jun-17 16:30N 40°51' E 024°42'2 4.9
2018-Jun-17 16:00N 40°49' E 024°42'2 4.4
2018-Jun-17 15:30N 40°47' E 024°42'1 1.1
2018-Jun-17 15:00N 40°47' E 024°42'4 8.1
2018-Jun-17 14:30N 40°51' E 024°42'0 0.0
2018-Jun-17 14:00N 40°51' E 024°42'2 4.3
2018-Jun-17 13:30N 40°49' E 024°42'3 5.1
2018-Jun-17 13:00N 40°47' E 024°42'0 0.0
2018-Jun-16 21:01N 40°47' E 024°43'0 0.6
2018-Jun-16 21:00N 40°47' E 024°43'1 2.4
2018-Jun-16 20:30N 40°48' E 024°42'4 7.3
2018-Jun-16 20:00N 40°51' E 024°42'1 1.3
2018-Jun-16 19:30N 40°52' E 024°41'5 9.9
2018-Jun-16 19:00N 40°47' E 024°42'0 0.0
2018-Jun-16 18:30N 40°47' E 024°42'0 0.7
2018-Jun-16 18:00N 40°47' E 024°42'0 0.1
2018-Jun-16 17:30N 40°47' E 024°42'0 0.2
2018-Jun-16 17:00N 40°47' E 024°42'0 0.6
2018-Jun-16 16:30N 40°47' E 024°42'0 0.2
2018-Jun-16 16:00N 40°47' E 024°42'0 0.0
2018-Jun-16 15:30N 40°47' E 024°42'0 0.0
2018-Jun-16 15:00N 40°47' E 024°42'1 1.9
2018-Jun-16 14:30N 40°48' E 024°42'4 7.7
2018-Jun-16 14:00N 40°51' E 024°42'0 0.0
2018-Jun-16 13:30N 40°51' E 024°42'2 4.0
2018-Jun-16 13:00N 40°50' E 024°41'3 5.5
2018-Jun-16 12:30N 40°47' E 024°42'4 7.3
2018-Jun-16 12:00N 40°50' E 024°41'1 0.1
2018-Jun-15 13:04N 40°51' E 024°42'0 0.1
2018-Jun-15 13:00N 40°51' E 024°42'2 4.7
2018-Jun-15 12:30N 40°49' E 024°41'1 2.9
2018-Jun-15 12:00N 40°48' E 024°42'4 7.7
2018-Jun-15 11:30N 40°51' E 024°42'0 0.0
2018-Jun-15 11:00N 40°51' E 024°42'2 4.5
2018-Jun-15 10:30N 40°49' E 024°41'3 5.1
2018-Jun-15 10:00N 40°47' E 024°42'0 0.0
2018-Jun-15 09:30N 40°47' E 024°42'0 0.0
2018-Jun-15 09:00N 40°47' E 024°42'0 0.0
2018-Jun-15 08:30N 40°47' E 024°42'1 1.8
2018-Jun-15 08:00N 40°48' E 024°42'4 7.8
2018-Jun-15 07:30N 40°51' E 024°42'0 0.0
2018-Jun-15 07:00N 40°51' E 024°42'2 4.2
2018-Jun-15 06:30N 40°49' E 024°41'3 5.3
2018-Jun-15 06:00N 40°47' E 024°42'0 0.0
2018-Jun-15 05:30N 40°47' E 024°42'0 0.0
2018-Jun-15 05:00N 40°47' E 024°42'0 0.0
2018-Jun-15 04:30N 40°47' E 024°42'0 0.9
2018-Jun-15 04:00N 40°47' E 024°42'4 8.5
2018-Jun-15 03:30N 40°51' E 024°42'1 1.5
2018-Jun-15 03:00N 40°52' E 024°41'5 9.6
2018-Jun-15 02:30N 40°47' E 024°42'0 0.0
2018-Jun-15 02:00N 40°47' E 024°42'0 0.0
2018-Jun-14 12:08N 40°47' E 024°42'1 7.9
2018-Jun-14 12:01N 40°48' E 024°41'4 7.7
2018-Jun-14 11:31N 40°51' E 024°42'0 0.0
2018-Jun-14 11:00N 40°51' E 024°42'2 4.3
2018-Jun-14 10:30N 40°49' E 024°41'3 5.4
2018-Jun-14 10:01N 40°47' E 024°42'0 0.0
2018-Jun-14 09:31N 40°47' E 024°42'0 0.0
2018-Jun-14 09:01N 40°47' E 024°42'0 0.0
2018-Jun-14 08:30N 40°47' E 024°42'1 1.6
2018-Jun-14 08:01N 40°48' E 024°42'4 7.8
2018-Jun-14 07:30N 40°51' E 024°42'0 0.0
2018-Jun-14 07:01N 40°51' E 024°42'2 4.4
2018-Jun-14 06:31N 40°49' E 024°41'3 5.1
2018-Jun-14 06:01N 40°47' E 024°42'0 0.0
2018-Jun-14 05:31N 40°47' E 024°42'0 0.0
2018-Jun-14 05:00N 40°47' E 024°42'0 0.9
2018-Jun-14 04:31N 40°47' E 024°42'4 8.6
2018-Jun-14 04:01N 40°51' E 024°42'0 0.1
2018-Jun-14 03:30N 40°51' E 024°42'1 1.2
2018-Jun-14 03:00N 40°52' E 024°41'5 9.7
2018-Jun-14 02:30N 40°47' E 024°42'0 0.0
2018-Jun-14 02:00N 40°47' E 024°42'0 0.0
2018-Jun-13 11:35N 40°47' E 024°42'0 4.1
2018-Jun-13 11:30N 40°47' E 024°42'4 8.8
2018-Jun-13 11:00N 40°51' E 024°42'0 0.1
2018-Jun-13 10:30N 40°51' E 024°42'2 4.3
2018-Jun-13 10:00N 40°49' E 024°41'3 5.3
2018-Jun-13 09:30N 40°47' E 024°42'1 2.5
2018-Jun-13 09:00N 40°48' E 024°42'4 7.1
2018-Jun-13 08:30N 40°51' E 024°42'0 0.0
2018-Jun-13 08:00N 40°51' E 024°42'2 4.2
2018-Jun-13 07:30N 40°49' E 024°42'3 5.3
2018-Jun-13 07:00N 40°47' E 024°42'1 1.1
2018-Jun-13 06:30N 40°47' E 024°42'4 8.3
2018-Jun-13 06:00N 40°51' E 024°42'0 0.0
2018-Jun-13 05:30N 40°51' E 024°42'2 4.2
2018-Jun-13 05:00N 40°49' E 024°42'3 5.2
2018-Jun-13 04:30N 40°47' E 024°42'0 0.5
2018-Jun-13 04:00N 40°47' E 024°43'0 0.0
2018-Jun-12 15:48N 40°47' E 024°43'1 3.2
2018-Jun-12 15:30N 40°48' E 024°42'4 8.0
2018-Jun-12 15:00N 40°51' E 024°42'0 0.0
2018-Jun-12 14:30N 40°51' E 024°42'2 4.2
2018-Jun-12 14:00N 40°49' E 024°41'3 5.3
2018-Jun-12 13:30N 40°47' E 024°42'1 1.6
2018-Jun-12 13:00N 40°48' E 024°42'4 7.9
2018-Jun-12 12:30N 40°51' E 024°42'0 0.0
2018-Jun-12 12:00N 40°51' E 024°42'2 4.2
2018-Jun-12 11:30N 40°49' E 024°41'3 5.4
2018-Jun-12 11:00N 40°47' E 024°42'0 0.5
2018-Jun-12 10:30N 40°47' E 024°43'0 0.0
2018-Jun-12 10:00N 40°47' E 024°43'0 0.0
2018-Jun-12 09:30N 40°47' E 024°43'0 0.0
2018-Jun-12 09:00N 40°47' E 024°43'0 0.0
2018-Jun-12 08:30N 40°47' E 024°43'0 0.0
2018-Jun-12 08:00N 40°47' E 024°43'  
Track history (hours):
 
Tides and Currents Weather Stations Pressure Air Temp Water Temp Dewpoint Dewpoint Depression Visibility Wind Speed Wind Dir Waves Ship Positions

Thassos I

Last reported at 2018-Jun-22 07:30 UTC. Time now 2018-Jun-22 07:46 UTC.
Position N 40°47' E 024°42'.

Length 98 m; draft 2.4 m.

Type: Passenger vessel. MMSI: 239361400.

Date/timePositionNaut miles runAvg speedWind from/ knotsBaromVisibWave heightAir tempDewpointWater temp
2018-Jun-22 07:30N 40°47' E 024°42'0 0.5
2018-Jun-22 07:00N 40°47' E 024°43'0 0.0
2018-Jun-21 12:34N 40°47' E 024°43'0 0.1
2018-Jun-21 12:31N 40°47' E 024°43'1 1.4
2018-Jun-21 12:00N 40°47' E 024°42'4 8.5
2018-Jun-21 11:30N 40°51' E 024°42'0 0.0
2018-Jun-21 11:00N 40°51' E 024°42'2 4.5
2018-Jun-21 10:30N 40°49' E 024°42'2 5.0
2018-Jun-21 10:00N 40°47' E 024°42'0 0.5
2018-Jun-21 09:30N 40°47' E 024°43'0 0.0
2018-Jun-21 09:01N 40°47' E 024°43'0 0.0
2018-Jun-21 08:31N 40°47' E 024°43'1 1.5
2018-Jun-21 08:01N 40°47' E 024°42'4 8.1
2018-Jun-21 07:31N 40°51' E 024°42'0 0.0
2018-Jun-21 07:01N 40°51' E 024°42'2 4.3
2018-Jun-21 06:30N 40°49' E 024°42'3 5.2
2018-Jun-21 06:01N 40°47' E 024°42'0 0.0
2018-Jun-21 05:31N 40°47' E 024°42'0 0.0
2018-Jun-21 05:01N 40°47' E 024°42'1 1.5
2018-Jun-21 04:31N 40°48' E 024°42'4 7.9
2018-Jun-21 04:01N 40°51' E 024°42'0 0.0
2018-Jun-21 03:30N 40°51' E 024°42'0 0.9
2018-Jun-21 03:01N 40°52' E 024°42'5 9.7
2018-Jun-21 02:31N 40°47' E 024°42'0 0.0
2018-Jun-21 02:01N 40°47' E 024°42'0 0.0
2018-Jun-20 10:09N 40°47' E 024°42'1 5.2
2018-Jun-20 10:01N 40°47' E 024°42'4 8.0
2018-Jun-20 09:31N 40°51' E 024°42'0 0.0
2018-Jun-20 09:00N 40°51' E 024°42'2 4.5
2018-Jun-20 08:30N 40°49' E 024°41'3 5.1
2018-Jun-20 08:00N 40°47' E 024°42'0 0.0
2018-Jun-20 07:31N 40°47' E 024°42'0 0.7
2018-Jun-20 07:00N 40°47' E 024°42'4 8.7
2018-Jun-20 06:31N 40°51' E 024°42'0 0.1
2018-Jun-20 06:01N 40°51' E 024°42'2 4.7
2018-Jun-20 05:31N 40°49' E 024°42'2 4.7
2018-Jun-20 05:01N 40°47' E 024°42'0 0.0
2018-Jun-20 04:31N 40°47' E 024°42'1 2.0
2018-Jun-20 04:01N 40°48' E 024°42'4 7.5
2018-Jun-20 03:31N 40°51' E 024°42'0 0.0
2018-Jun-20 03:00N 40°51' E 024°42'0 0.0
2018-Jun-19 20:46N 40°51' E 024°42'0 1.4
2018-Jun-19 20:30N 40°52' E 024°42'5 9.6
2018-Jun-19 20:00N 40°47' E 024°42'0 0.0
2018-Jun-19 19:30N 40°47' E 024°42'0 0.0
2018-Jun-19 19:00N 40°47' E 024°42'1 1.1
2018-Jun-19 18:30N 40°47' E 024°42'4 8.4
2018-Jun-19 18:00N 40°51' E 024°42'0 0.7
2018-Jun-19 17:30N 40°52' E 024°42'5 9.5
2018-Jun-19 17:00N 40°47' E 024°42'0 0.8
2018-Jun-19 16:30N 40°47' E 024°42'4 8.6
2018-Jun-19 16:00N 40°51' E 024°42'0 0.3
2018-Jun-19 15:30N 40°51' E 024°42'0 0.0
2018-Jun-18 09:13N 40°51' E 024°42'0 0.2
2018-Jun-18 09:00N 40°51' E 024°42'4 8.8
2018-Jun-18 08:30N 40°47' E 024°42'1 1.3
2018-Jun-18 08:00N 40°48' E 024°42'4 7.5
2018-Jun-18 07:30N 40°51' E 024°42'0 0.0
2018-Jun-18 07:00N 40°51' E 024°42'2 4.1
2018-Jun-18 06:30N 40°49' E 024°41'3 5.3
2018-Jun-18 06:00N 40°47' E 024°42'0 0.9
2018-Jun-18 05:30N 40°47' E 024°42'4 8.2
2018-Jun-18 05:00N 40°51' E 024°42'0 0.0
2018-Jun-18 04:30N 40°51' E 024°42'2 4.4
2018-Jun-18 04:00N 40°49' E 024°42'3 5.0
2018-Jun-18 03:30N 40°47' E 024°42'0 0.0
2018-Jun-18 03:00N 40°47' E 024°42'4 7.3
2018-Jun-18 02:30N 40°50' E 024°41'1 2.8
2018-Jun-18 02:00N 40°51' E 024°42'0 0.0
2018-Jun-17 19:10N 40°51' E 024°42'1 3.4
2018-Jun-17 19:00N 40°52' E 024°41'5 9.6
2018-Jun-17 18:30N 40°47' E 024°42'0 0.0
2018-Jun-17 18:00N 40°47' E 024°42'1 1.9
2018-Jun-17 17:30N 40°48' E 024°42'4 7.5
2018-Jun-17 17:00N 40°51' E 024°42'0 0.0
2018-Jun-17 16:30N 40°51' E 024°42'2 4.9
2018-Jun-17 16:00N 40°49' E 024°42'2 4.4
2018-Jun-17 15:30N 40°47' E 024°42'1 1.1
2018-Jun-17 15:00N 40°47' E 024°42'4 8.1
2018-Jun-17 14:30N 40°51' E 024°42'0 0.0
2018-Jun-17 14:00N 40°51' E 024°42'2 4.3
2018-Jun-17 13:30N 40°49' E 024°42'3 5.1
2018-Jun-17 13:00N 40°47' E 024°42'0 0.0
2018-Jun-16 21:01N 40°47' E 024°43'0 0.6
2018-Jun-16 21:00N 40°47' E 024°43'1 2.4
2018-Jun-16 20:30N 40°48' E 024°42'4 7.3
2018-Jun-16 20:00N 40°51' E 024°42'1 1.3
2018-Jun-16 19:30N 40°52' E 024°41'5 9.9
2018-Jun-16 19:00N 40°47' E 024°42'0 0.0
2018-Jun-16 18:30N 40°47' E 024°42'0 0.7
2018-Jun-16 18:00N 40°47' E 024°42'0 0.1
2018-Jun-16 17:30N 40°47' E 024°42'0 0.2
2018-Jun-16 17:00N 40°47' E 024°42'0 0.6
2018-Jun-16 16:30N 40°47' E 024°42'0 0.2
2018-Jun-16 16:00N 40°47' E 024°42'0 0.0
2018-Jun-16 15:30N 40°47' E 024°42'0 0.0
2018-Jun-16 15:00N 40°47' E 024°42'1 1.9
2018-Jun-16 14:30N 40°48' E 024°42'4 7.7
2018-Jun-16 14:00N 40°51' E 024°42'0 0.0
2018-Jun-16 13:30N 40°51' E 024°42'2 4.0
2018-Jun-16 13:00N 40°50' E 024°41'3 5.5
2018-Jun-16 12:30N 40°47' E 024°42'4 7.3
2018-Jun-16 12:00N 40°50' E 024°41'1 0.1
2018-Jun-15 13:04N 40°51' E 024°42'0 0.1
2018-Jun-15 13:00N 40°51' E 024°42'2 4.7
2018-Jun-15 12:30N 40°49' E 024°41'1 2.9
2018-Jun-15 12:00N 40°48' E 024°42'4 7.7
2018-Jun-15 11:30N 40°51' E 024°42'0 0.0
2018-Jun-15 11:00N 40°51' E 024°42'2 4.5
2018-Jun-15 10:30N 40°49' E 024°41'3 5.1
2018-Jun-15 10:00N 40°47' E 024°42'0 0.0
2018-Jun-15 09:30N 40°47' E 024°42'0 0.0
2018-Jun-15 09:00N 40°47' E 024°42'0 0.0
2018-Jun-15 08:30N 40°47' E 024°42'1 1.8
2018-Jun-15 08:00N 40°48' E 024°42'4 7.8
2018-Jun-15 07:30N 40°51' E 024°42'0 0.0
2018-Jun-15 07:00N 40°51' E 024°42'2 4.2
2018-Jun-15 06:30N 40°49' E 024°41'3 5.3
2018-Jun-15 06:00N 40°47' E 024°42'0 0.0
2018-Jun-15 05:30N 40°47' E 024°42'0 0.0
2018-Jun-15 05:00N 40°47' E 024°42'0 0.0
2018-Jun-15 04:30N 40°47' E 024°42'0 0.9
2018-Jun-15 04:00N 40°47' E 024°42'4 8.5
2018-Jun-15 03:30N 40°51' E 024°42'1 1.5
2018-Jun-15 03:00N 40°52' E 024°41'5 9.6
2018-Jun-15 02:30N 40°47' E 024°42'0 0.0
2018-Jun-15 02:00N 40°47' E 024°42'0 0.0
2018-Jun-14 12:08N 40°47' E 024°42'1 7.9
2018-Jun-14 12:01N 40°48' E 024°41'4 7.7
2018-Jun-14 11:31N 40°51' E 024°42'0 0.0
2018-Jun-14 11:00N 40°51' E 024°42'2 4.3
2018-Jun-14 10:30N 40°49' E 024°41'3 5.4
2018-Jun-14 10:01N 40°47' E 024°42'0 0.0
2018-Jun-14 09:31N 40°47' E 024°42'0 0.0
2018-Jun-14 09:01N 40°47' E 024°42'0 0.0
2018-Jun-14 08:30N 40°47' E 024°42'1 1.6
2018-Jun-14 08:01N 40°48' E 024°42'4 7.8
2018-Jun-14 07:30N 40°51' E 024°42'0 0.0
2018-Jun-14 07:01N 40°51' E 024°42'2 4.4
2018-Jun-14 06:31N 40°49' E 024°41'3 5.1
2018-Jun-14 06:01N 40°47' E 024°42'0 0.0
2018-Jun-14 05:31N 40°47' E 024°42'0 0.0
2018-Jun-14 05:00N 40°47' E 024°42'0 0.9
2018-Jun-14 04:31N 40°47' E 024°42'4 8.6
2018-Jun-14 04:01N 40°51' E 024°42'0 0.1
2018-Jun-14 03:30N 40°51' E 024°42'1 1.2
2018-Jun-14 03:00N 40°52' E 024°41'5 9.7
2018-Jun-14 02:30N 40°47' E 024°42'0 0.0
2018-Jun-14 02:00N 40°47' E 024°42'0 0.0
2018-Jun-13 11:35N 40°47' E 024°42'0 4.1
2018-Jun-13 11:30N 40°47' E 024°42'4 8.8
2018-Jun-13 11:00N 40°51' E 024°42'0 0.1
2018-Jun-13 10:30N 40°51' E 024°42'2 4.3
2018-Jun-13 10:00N 40°49' E 024°41'3 5.3
2018-Jun-13 09:30N 40°47' E 024°42'1 2.5
2018-Jun-13 09:00N 40°48' E 024°42'4 7.1
2018-Jun-13 08:30N 40°51' E 024°42'0 0.0
2018-Jun-13 08:00N 40°51' E 024°42'2 4.2
2018-Jun-13 07:30N 40°49' E 024°42'3 5.3
2018-Jun-13 07:00N 40°47' E 024°42'1 1.1
2018-Jun-13 06:30N 40°47' E 024°42'4 8.3
2018-Jun-13 06:00N 40°51' E 024°42'0 0.0
2018-Jun-13 05:30N 40°51' E 024°42'2 4.2
2018-Jun-13 05:00N 40°49' E 024°42'3 5.2
2018-Jun-13 04:30N 40°47' E 024°42'0 0.5
2018-Jun-13 04:00N 40°47' E 024°43'0 0.0
2018-Jun-12 15:48N 40°47' E 024°43'1 3.2
2018-Jun-12 15:30N 40°48' E 024°42'4 8.0
2018-Jun-12 15:00N 40°51' E 024°42'0 0.0
2018-Jun-12 14:30N 40°51' E 024°42'2 4.2
2018-Jun-12 14:00N 40°49' E 024°41'3 5.3
2018-Jun-12 13:30N 40°47' E 024°42'1 1.6
2018-Jun-12 13:00N 40°48' E 024°42'4 7.9
2018-Jun-12 12:30N 40°51' E 024°42'0 0.0
2018-Jun-12 12:00N 40°51' E 024°42'2 4.2
2018-Jun-12 11:30N 40°49' E 024°41'3 5.4
2018-Jun-12 11:00N 40°47' E 024°42'0 0.5
2018-Jun-12 10:30N 40°47' E 024°43'0 0.0
2018-Jun-12 10:00N 40°47' E 024°43'0 0.0
2018-Jun-12 09:30N 40°47' E 024°43'0 0.0
2018-Jun-12 09:00N 40°47' E 024°43'0 0.0
2018-Jun-12 08:30N 40°47' E 024°43'0 0.0
2018-Jun-12 08:00N 40°47' E 024°43'  

Dump ship's entire track history